createdAt,value
2018-06-22T00:02:11.401Z,8.67
2018-06-22T00:04:39.907Z,4.60
2018-06-22T00:07:08.390Z,4.77
2018-06-22T00:09:36.901Z,6.27
2018-06-22T00:12:05.480Z,3.37
2018-06-22T00:14:34.011Z,5.80
2018-06-22T00:17:02.517Z,4.00
2018-06-22T00:19:31.001Z,5.80
2018-06-22T00:21:59.603Z,2.53
2018-06-22T00:24:28.121Z,5.00
2018-06-22T00:26:56.669Z,4.17
2018-06-22T00:29:25.155Z,4.47
2018-06-22T00:31:53.940Z,4.77
2018-06-22T00:34:22.406Z,5.00
2018-06-22T00:36:51.066Z,4.97
2018-06-22T00:39:19.574Z,4.77
2018-06-22T00:41:48.191Z,5.23
2018-06-22T00:44:16.760Z,3.60
2018-06-22T00:46:45.317Z,5.00
2018-06-22T00:49:14.136Z,9.93
2018-06-22T00:51:42.665Z,4.53
2018-06-22T00:54:14.942Z,9.87
2018-06-22T00:56:43.488Z,2.83
2018-06-22T00:59:12.657Z,2.80
2018-06-22T01:01:41.321Z,1.77
2018-06-22T01:04:10.904Z,4.13
2018-06-22T01:06:39.442Z,4.53
2018-06-22T01:09:10.718Z,3.23
2018-06-22T01:11:39.352Z,2.67
2018-06-22T01:14:08.391Z,5.30
2018-06-22T01:16:37.115Z,5.43
2018-06-22T01:19:05.900Z,6.87
2018-06-22T01:21:34.484Z,4.57
2018-06-22T01:24:02.994Z,5.37
2018-06-22T01:26:31.457Z,3.43
2018-06-22T01:29:05.381Z,4.63
2018-06-22T01:31:33.925Z,4.13
2018-06-22T01:34:02.221Z,5.37
2018-06-22T01:36:30.720Z,9.67
2018-06-22T01:38:59.237Z,7.53
2018-06-22T01:41:27.814Z,2.20
2018-06-22T01:43:56.385Z,8.73
2018-06-22T01:46:24.913Z,5.00
2018-06-22T01:48:53.414Z,3.70
2018-06-22T01:51:21.895Z,3.10
2018-06-22T01:53:50.394Z,1.73
2018-06-22T01:56:18.928Z,3.20
2018-06-22T01:58:47.490Z,2.77
2018-06-22T02:01:16.028Z,3.50
2018-06-22T02:03:44.495Z,2.93
2018-06-22T02:06:12.971Z,3.17
2018-06-22T02:08:41.559Z,6.80
2018-06-22T02:11:10.087Z,2.43
2018-06-22T02:13:38.527Z,5.70
2018-06-22T02:16:06.997Z,2.13
2018-06-22T02:18:35.469Z,9.13
2018-06-22T02:21:03.679Z,6.73
2018-06-22T02:23:32.167Z,4.43
2018-06-22T02:26:00.672Z,5.20
2018-06-22T02:28:29.122Z,6.10
2018-06-22T02:30:57.598Z,4.17
2018-06-22T02:33:26.127Z,5.60
2018-06-22T02:35:54.825Z,6.80
2018-06-22T02:38:23.296Z,1.57
2018-06-22T02:40:51.772Z,6.33
2018-06-22T02:43:20.260Z,6.17
2018-06-22T02:45:48.784Z,1.47
2018-06-22T02:48:17.306Z,4.27
2018-06-22T02:50:45.790Z,9.60
2018-06-22T02:53:13.974Z,8.10
2018-06-22T02:55:42.449Z,5.77
2018-06-22T02:58:10.642Z,6.33
2018-06-22T03:00:39.110Z,6.43
2018-06-22T03:03:07.289Z,4.40
2018-06-22T03:05:35.472Z,5.43
2018-06-22T03:08:03.967Z,5.13
2018-06-22T03:10:32.431Z,2.80
2018-06-22T03:13:00.610Z,4.90
2018-06-22T03:15:29.072Z,5.80
2018-06-22T03:17:57.588Z,10.13
2018-06-22T03:20:25.748Z,9.33
2018-06-22T03:22:54.262Z,10.80
2018-06-22T03:25:22.695Z,10.00
2018-06-22T03:27:51.164Z,5.37
2018-06-22T03:30:19.724Z,6.83
2018-06-22T03:32:48.266Z,9.13
2018-06-22T03:35:16.787Z,3.43
2018-06-22T03:37:44.952Z,10.57
2018-06-22T03:40:13.412Z,4.13
2018-06-22T03:42:41.885Z,4.33
2018-06-22T03:45:10.466Z,4.97
2018-06-22T03:47:39.083Z,4.17
2018-06-22T03:50:07.564Z,8.07
2018-06-22T03:52:36.009Z,3.87
2018-06-22T03:55:04.494Z,7.43
2018-06-22T03:57:32.936Z,1.93
2018-06-22T04:00:01.105Z,1.90
2018-06-22T04:02:29.617Z,4.50
2018-06-22T04:04:58.107Z,1.80
2018-06-22T04:07:26.579Z,3.00
2018-06-22T04:09:54.746Z,3.73
2018-06-22T04:12:23.182Z,6.27
2018-06-22T04:14:51.656Z,3.70
2018-06-22T04:17:20.090Z,4.23
2018-06-22T04:19:48.577Z,1.33
2018-06-22T04:22:17.085Z,5.50
2018-06-22T04:24:45.287Z,1.43
2018-06-22T04:27:13.710Z,2.87
2018-06-22T04:29:42.147Z,4.17
2018-06-22T04:32:10.621Z,2.67
2018-06-22T04:34:39.085Z,5.73
2018-06-22T04:37:07.566Z,1.00
2018-06-22T04:39:36.309Z,2.43
2018-06-22T04:42:04.806Z,8.23
2018-06-22T04:44:33.264Z,2.97
2018-06-22T04:47:02.090Z,1.83
2018-06-22T04:49:30.922Z,3.00
2018-06-22T04:52:00.052Z,7.80
2018-06-22T04:54:28.719Z,2.50
2018-06-22T04:56:59.586Z,1.80
2018-06-22T04:59:28.400Z,3.00
2018-06-22T05:01:57.238Z,1.63
2018-06-22T05:04:25.654Z,1.53
2018-06-22T05:06:54.157Z,2.93
2018-06-22T05:09:22.660Z,2.13
2018-06-22T05:11:50.813Z,1.30
2018-06-22T05:14:19.566Z,1.87
2018-06-22T05:16:48.057Z,4.73
2018-06-22T05:19:16.619Z,1.80
2018-06-22T05:21:45.107Z,1.63
2018-06-22T05:24:13.568Z,2.73
2018-06-22T05:26:42.057Z,0.83
2018-06-22T05:29:10.506Z,3.13
2018-06-22T05:31:39.262Z,1.23
2018-06-22T05:34:07.715Z,0.80
2018-06-22T05:36:36.235Z,1.00
2018-06-22T05:39:07.766Z,0.90
2018-06-22T05:41:36.307Z,2.20
2018-06-22T05:44:04.798Z,1.40
2018-06-22T05:46:33.259Z,2.30
2018-06-22T05:49:01.766Z,2.47
2018-06-22T05:51:30.283Z,3.60
2018-06-22T05:53:58.772Z,1.17
2018-06-22T05:56:27.275Z,4.67
2018-06-22T05:58:55.813Z,2.40
2018-06-22T06:01:24.253Z,2.90
2018-06-22T06:03:52.780Z,0.90
2018-06-22T06:06:21.217Z,1.50
2018-06-22T06:08:49.734Z,2.10
2018-06-22T06:11:18.264Z,1.63
2018-06-22T06:13:46.729Z,1.70
2018-06-22T06:16:14.888Z,0.93
2018-06-22T06:18:43.379Z,0.67
2018-06-22T06:21:11.861Z,1.80
2018-06-22T06:23:40.073Z,1.60
2018-06-22T06:26:08.786Z,1.40
2018-06-22T06:28:36.990Z,1.60
2018-06-22T06:31:05.480Z,0.97
2018-06-22T06:33:34.016Z,1.80
2018-06-22T06:36:02.530Z,1.27
2018-06-22T06:38:31.013Z,1.67
2018-06-22T06:40:59.511Z,2.53
2018-06-22T06:43:28.047Z,4.17
2018-06-22T06:45:56.313Z,1.87
2018-06-22T06:48:24.809Z,0.90
2018-06-22T06:50:53.038Z,2.13
2018-06-22T06:53:21.526Z,0.80
2018-06-22T06:55:50.066Z,3.40
2018-06-22T06:58:18.552Z,4.93
2018-06-22T07:00:47.016Z,1.10
2018-06-22T07:03:15.503Z,1.00
2018-06-22T07:05:44.060Z,1.80
2018-06-22T07:08:12.699Z,2.93
2018-06-22T07:10:41.180Z,2.20
2018-06-22T07:13:09.412Z,1.10
2018-06-22T07:15:40.642Z,3.87
2018-06-22T07:18:09.869Z,2.30
2018-06-22T07:20:38.746Z,1.30
2018-06-22T07:23:07.795Z,3.67
2018-06-22T07:25:36.101Z,2.43
2018-06-22T07:28:04.762Z,6.17
2018-06-22T07:30:33.238Z,2.77
2018-06-22T07:33:01.844Z,4.13
2018-06-22T07:35:30.011Z,3.97
2018-06-22T07:37:58.479Z,11.00
2018-06-22T07:40:26.913Z,4.40
2018-06-22T07:42:55.419Z,3.13
2018-06-22T07:45:23.871Z,4.03
2018-06-22T07:47:52.354Z,3.33
2018-06-22T07:50:20.854Z,2.67
2018-06-22T07:52:49.381Z,7.63
2018-06-22T07:55:17.845Z,3.50
2018-06-22T07:57:46.306Z,2.90
2018-06-22T08:00:14.833Z,2.37
2018-06-22T08:02:43.337Z,3.80
2018-06-22T08:05:11.839Z,5.63
2018-06-22T08:07:40.314Z,6.20
2018-06-22T08:10:08.754Z,1.87
2018-06-22T08:12:37.231Z,2.93
2018-06-22T08:15:05.683Z,7.87
2018-06-22T08:17:34.349Z,3.23
2018-06-22T08:20:02.815Z,5.70
2018-06-22T08:22:31.416Z,8.53
2018-06-22T08:24:59.904Z,6.43
2018-06-22T08:27:28.349Z,1.73
2018-06-22T08:29:56.803Z,3.27
2018-06-22T08:32:25.276Z,3.60
2018-06-22T08:34:53.764Z,4.83
2018-06-22T08:37:22.301Z,5.27
2018-06-22T08:39:50.917Z,8.47
2018-06-22T08:42:19.401Z,7.40
2018-06-22T08:44:47.996Z,3.63
2018-06-22T08:47:16.465Z,4.43
2018-06-22T08:49:44.941Z,6.40
2018-06-22T08:52:15.030Z,6.23
2018-06-22T08:54:43.579Z,5.63
2018-06-22T08:57:12.028Z,5.10
2018-06-22T08:59:40.509Z,3.47
2018-06-22T09:02:08.987Z,7.17
2018-06-22T09:04:37.440Z,7.03
2018-06-22T09:07:05.926Z,10.13
2018-06-22T09:09:34.126Z,9.27
2018-06-22T09:12:02.292Z,9.10
2018-06-22T09:14:30.486Z,7.97
2018-06-22T09:16:58.947Z,5.13
2018-06-22T09:19:27.442Z,8.60
2018-06-22T09:21:55.605Z,8.03
2018-06-22T09:24:24.046Z,7.10
2018-06-22T09:26:52.493Z,9.87
2018-06-22T09:29:20.719Z,11.90
2018-06-22T09:31:49.192Z,9.60
2018-06-22T09:34:18.027Z,8.93
2018-06-22T09:36:46.470Z,11.53
2018-06-22T09:39:14.949Z,8.17
2018-06-22T09:41:43.418Z,8.33
2018-06-22T09:44:23.214Z,9.63
2018-06-22T09:46:51.656Z,13.00
2018-06-22T09:49:20.155Z,9.23
2018-06-22T09:51:48.637Z,8.27
2018-06-22T09:54:17.072Z,6.47
2018-06-22T09:56:45.568Z,3.87
2018-06-22T09:59:14.020Z,10.13
2018-06-22T10:01:42.522Z,5.90
2018-06-22T10:04:11.005Z,7.20
2018-06-22T10:06:39.472Z,8.20
2018-06-22T10:09:10.389Z,6.37
2018-06-22T10:11:38.925Z,5.83
2018-06-22T10:14:07.446Z,14.20
2018-06-22T10:16:35.620Z,11.90
2018-06-22T10:19:04.193Z,10.23
2018-06-22T10:21:32.659Z,14.53
2018-06-22T10:24:01.437Z,14.10
2018-06-22T10:26:29.901Z,9.57
2018-06-22T10:28:58.494Z,4.93
2018-06-22T10:31:26.935Z,6.67
2018-06-22T10:33:55.298Z,7.53
2018-06-22T10:36:23.742Z,4.17
2018-06-22T10:38:52.338Z,7.17
2018-06-22T10:41:20.857Z,5.90
2018-06-22T10:43:49.332Z,6.43
2018-06-22T10:46:17.875Z,6.63
2018-06-22T10:48:46.313Z,4.90
2018-06-22T10:51:14.861Z,4.97
2018-06-22T10:53:43.300Z,3.20
2018-06-22T10:56:11.911Z,11.73
2018-06-22T10:58:40.398Z,2.37
2018-06-22T11:01:08.981Z,6.13
2018-06-22T11:03:37.543Z,8.97
2018-06-22T11:06:06.114Z,7.57
2018-06-22T11:08:34.601Z,6.00
2018-06-22T11:11:03.149Z,7.27
2018-06-22T11:13:31.798Z,9.63
2018-06-22T11:16:00.279Z,7.50
2018-06-22T11:18:29.182Z,14.57
2018-06-22T11:20:57.485Z,9.80
2018-06-22T11:23:25.996Z,7.53
2018-06-22T11:25:54.553Z,10.07
2018-06-22T11:28:23.083Z,12.27
2018-06-22T11:30:51.633Z,9.53
2018-06-22T11:33:20.240Z,17.53
2018-06-22T11:35:48.842Z,16.73
2018-06-22T11:38:17.235Z,7.63
2018-06-22T11:40:45.732Z,11.70
2018-06-22T11:43:14.179Z,12.63
2018-06-22T11:45:42.820Z,10.60
2018-06-22T11:48:11.276Z,9.83
2018-06-22T11:50:39.813Z,9.57
2018-06-22T11:53:07.983Z,13.03
2018-06-22T11:55:36.179Z,12.27
2018-06-22T11:58:04.676Z,7.00
2018-06-22T12:00:33.787Z,6.97
2018-06-22T12:03:02.371Z,10.00
2018-06-22T12:05:30.985Z,8.97
2018-06-22T12:07:59.868Z,11.53
2018-06-22T12:10:28.448Z,6.30
2018-06-22T12:12:56.939Z,7.17
2018-06-22T12:15:25.503Z,7.23
2018-06-22T12:17:53.956Z,6.30
2018-06-22T12:20:22.425Z,8.93
2018-06-22T12:22:50.999Z,7.47
2018-06-22T12:25:19.513Z,6.23
2018-06-22T12:27:47.986Z,8.17
2018-06-22T12:30:16.496Z,9.90
2018-06-22T12:32:44.644Z,5.97
2018-06-22T12:35:13.146Z,6.83
2018-06-22T12:37:41.608Z,9.47
2018-06-22T12:40:10.083Z,9.33
2018-06-22T12:42:38.577Z,7.23
2018-06-22T12:45:09.248Z,5.20
2018-06-22T12:47:37.458Z,8.43
2018-06-22T12:50:06.442Z,8.33
2018-06-22T12:52:34.948Z,12.60
2018-06-22T12:55:03.450Z,9.53
2018-06-22T12:57:32.033Z,5.90
2018-06-22T13:00:00.337Z,5.73
2018-06-22T13:02:29.163Z,9.67
2018-06-22T13:04:57.680Z,8.50
2018-06-22T13:07:26.180Z,5.57
2018-06-22T13:09:54.633Z,11.43
2018-06-22T13:12:22.814Z,7.57
2018-06-22T13:14:51.331Z,5.27
2018-06-22T13:17:19.835Z,6.97
2018-06-22T13:19:48.319Z,6.87
2018-06-22T13:22:16.861Z,4.40
2018-06-22T13:24:45.267Z,6.57
2018-06-22T13:27:13.732Z,6.47
2018-06-22T13:29:42.184Z,7.50
2018-06-22T13:32:10.695Z,10.27
2018-06-22T13:34:39.205Z,9.77
2018-06-22T13:37:07.707Z,7.60
2018-06-22T13:39:36.193Z,13.03
2018-06-22T13:42:04.680Z,7.53
2018-06-22T13:44:33.251Z,7.27
2018-06-22T13:47:01.729Z,7.83
2018-06-22T13:49:30.222Z,9.20
2018-06-22T13:51:58.652Z,7.03
2018-06-22T13:54:27.305Z,7.07
2018-06-22T13:56:55.832Z,11.23
2018-06-22T13:59:24.275Z,12.03
2018-06-22T14:01:52.757Z,7.53
2018-06-22T14:04:26.533Z,12.57
2018-06-22T14:06:56.215Z,11.30
2018-06-22T14:09:24.879Z,11.43
2018-06-22T14:11:53.265Z,7.50
2018-06-22T14:14:21.755Z,5.87
2018-06-22T14:16:50.225Z,11.27
2018-06-22T14:19:18.784Z,13.27
2018-06-22T14:21:47.226Z,6.10
2018-06-22T14:24:15.765Z,11.83
2018-06-22T14:26:44.204Z,9.80
2018-06-22T14:29:12.671Z,8.27
2018-06-22T14:31:41.139Z,9.27
2018-06-22T14:34:09.653Z,10.57
2018-06-22T14:36:38.109Z,6.13
2018-06-22T14:39:08.469Z,9.40
2018-06-22T14:41:36.975Z,5.67
2018-06-22T14:44:05.819Z,13.23
2018-06-22T14:46:34.396Z,13.50
2018-06-22T14:49:02.903Z,10.17
2018-06-22T14:51:31.408Z,2.90
2018-06-22T14:54:05.450Z,6.90
2018-06-22T14:56:39.157Z,5.97
2018-06-22T14:59:13.065Z,16.77
2018-06-22T15:01:46.558Z,8.00
2018-06-22T15:04:20.448Z,10.20
2018-06-22T15:06:54.158Z,7.77
2018-06-22T15:09:22.688Z,6.90
2018-06-22T15:11:51.230Z,7.87
2018-06-22T15:14:19.766Z,6.53
2018-06-22T15:16:48.683Z,7.00
2018-06-22T15:19:17.150Z,7.70
2018-06-22T15:21:45.681Z,12.83
2018-06-22T15:24:14.133Z,8.63
2018-06-22T15:26:42.683Z,5.63
2018-06-22T15:29:10.825Z,10.70
2018-06-22T15:31:39.318Z,10.93
2018-06-22T15:34:13.014Z,8.77
2018-06-22T15:36:46.860Z,11.07
2018-06-22T15:40:24.117Z,4.43
2018-06-22T15:42:57.898Z,11.07
2018-06-22T15:45:30.330Z,6.30
2018-06-22T15:48:04.160Z,4.10
2018-06-22T15:50:37.856Z,5.63
2018-06-22T15:53:11.738Z,9.07
2018-06-22T15:55:43.724Z,7.40
2018-06-22T15:58:12.331Z,4.90
2018-06-22T16:00:40.800Z,7.23
2018-06-22T16:03:15.283Z,6.20
2018-06-22T16:05:43.787Z,3.97
2018-06-22T16:08:12.297Z,5.70
2018-06-22T16:10:40.772Z,6.50
2018-06-22T16:13:14.715Z,7.33
2018-06-22T16:15:48.605Z,7.73
2018-06-22T16:18:22.570Z,12.43
2018-06-22T16:20:55.974Z,10.17
2018-06-22T16:23:29.812Z,8.93
2018-06-22T16:26:03.541Z,16.00
2018-06-22T16:28:32.016Z,8.70
2018-06-22T16:31:00.503Z,9.70
2018-06-22T16:33:29.210Z,16.03
2018-06-22T16:35:57.728Z,9.10
2018-06-22T16:38:25.939Z,15.87
2018-06-22T16:40:54.393Z,10.77
2018-06-22T16:43:23.957Z,13.87
2018-06-22T16:45:52.583Z,12.53
2018-06-22T16:48:21.069Z,11.43
2018-06-22T16:50:49.588Z,11.50
2018-06-22T16:53:18.100Z,6.90
2018-06-22T16:55:46.840Z,6.90
2018-06-22T16:58:20.466Z,13.63
2018-06-22T17:00:48.938Z,21.63
2018-06-22T17:03:17.429Z,7.97
2018-06-22T17:05:45.937Z,16.73
2018-06-22T17:08:19.612Z,10.30
2018-06-22T17:10:53.612Z,9.57
2018-06-22T17:13:27.272Z,16.30
2018-06-22T17:16:01.042Z,6.90
2018-06-22T17:18:34.775Z,8.97
2018-06-22T17:21:03.332Z,12.80
2018-06-22T17:23:31.569Z,12.50
2018-06-22T17:26:00.054Z,4.90
2018-06-22T17:28:28.525Z,4.40
2018-06-22T17:30:57.022Z,10.57
2018-06-22T17:33:25.562Z,9.27
2018-06-22T17:35:54.041Z,17.67
2018-06-22T17:38:22.579Z,7.50
2018-06-22T17:40:51.054Z,6.80
2018-06-22T17:43:19.670Z,10.97
2018-06-22T17:45:48.280Z,10.27
2018-06-22T17:48:16.435Z,8.73
2018-06-22T17:50:44.965Z,10.90
2018-06-22T17:53:13.617Z,9.23
2018-06-22T17:55:42.140Z,12.73
2018-06-22T17:58:10.659Z,13.67
2018-06-22T18:00:44.470Z,12.80
2018-06-22T18:03:18.222Z,7.27
2018-06-22T18:05:52.205Z,9.43
2018-06-22T18:08:25.997Z,11.50
2018-06-22T18:10:59.780Z,5.30
2018-06-22T18:13:28.234Z,12.47
2018-06-22T18:15:56.813Z,12.20
2018-06-22T18:18:25.293Z,9.43
2018-06-22T18:20:53.437Z,9.83
2018-06-22T18:23:21.911Z,5.47
2018-06-22T18:25:50.350Z,7.70
2018-06-22T18:28:18.526Z,5.47
2018-06-22T18:30:47.001Z,5.90
2018-06-22T18:33:15.498Z,6.97
2018-06-22T18:35:43.983Z,9.20
2018-06-22T18:38:12.447Z,6.27
2018-06-22T18:40:40.941Z,16.07
2018-06-22T18:43:13.615Z,8.00
2018-06-22T18:45:42.160Z,8.30
2018-06-22T18:48:10.660Z,7.97
2018-06-22T18:50:39.185Z,9.73
2018-06-22T18:55:14.990Z,8.67
2018-06-22T18:57:48.844Z,5.80
2018-06-22T19:00:22.519Z,5.03
2018-06-22T19:02:56.503Z,12.53
2018-06-22T19:05:24.670Z,14.07
2018-06-22T19:07:53.196Z,8.97
2018-06-22T19:10:21.703Z,9.57
2018-06-22T19:12:50.199Z,8.43
2018-06-22T19:15:18.733Z,7.20
2018-06-22T19:17:47.006Z,11.40
2018-06-22T19:20:15.502Z,17.00
2018-06-22T19:22:44.011Z,14.77
2018-06-22T19:25:12.555Z,11.87
2018-06-22T19:27:41.103Z,12.90
2018-06-22T19:30:10.332Z,7.80
2018-06-22T19:32:39.323Z,11.03
2018-06-22T19:35:14.783Z,14.87
2018-06-22T19:37:44.240Z,11.23
2018-06-22T19:40:13.062Z,8.27
2018-06-22T19:42:41.542Z,8.97
2018-06-22T19:45:15.586Z,8.90
2018-06-22T19:47:49.516Z,13.47
2018-06-22T19:50:23.219Z,8.67
2018-06-22T19:52:57.261Z,11.70
2018-06-22T19:55:25.785Z,10.10
2018-06-22T19:57:54.357Z,10.50
2018-06-22T20:00:22.845Z,14.60
2018-06-22T20:02:51.310Z,9.80
2018-06-22T20:05:19.813Z,12.47
2018-06-22T20:07:48.310Z,12.90
2018-06-22T20:10:16.788Z,15.37
2018-06-22T20:12:45.251Z,14.70
2018-06-22T20:15:13.807Z,16.43
2018-06-22T20:17:42.272Z,9.10
2018-06-22T20:20:10.816Z,7.43
2018-06-22T20:22:39.313Z,13.70
2018-06-22T20:25:13.192Z,10.93
2018-06-22T20:27:41.640Z,6.17
2018-06-22T20:30:10.121Z,14.87
2018-06-22T20:32:38.637Z,13.37
2018-06-22T20:35:12.497Z,9.70
2018-06-22T20:37:46.360Z,8.73
2018-06-22T20:40:20.103Z,14.83
2018-06-22T20:42:53.764Z,9.50
2018-06-22T20:45:27.578Z,11.50
2018-06-22T20:48:01.338Z,11.77
2018-06-22T20:50:32.558Z,10.90
2018-06-22T20:53:01.648Z,13.30
2018-06-22T20:55:30.490Z,15.03
2018-06-22T20:57:58.922Z,16.00
2018-06-22T21:00:28.332Z,16.87
2018-06-22T21:02:58.081Z,10.53
2018-06-22T21:05:26.554Z,12.00
2018-06-22T21:07:55.194Z,16.77
2018-06-22T21:10:23.828Z,17.30
2018-06-22T21:12:52.328Z,12.40
2018-06-22T21:15:20.803Z,19.30
2018-06-22T21:17:49.332Z,11.80
2018-06-22T21:20:17.492Z,19.33
2018-06-22T21:22:46.071Z,18.40
2018-06-22T21:25:14.557Z,19.50
2018-06-22T21:27:48.338Z,18.73
2018-06-22T21:30:22.126Z,12.00
2018-06-22T21:32:55.900Z,20.53
2018-06-22T21:35:30.183Z,20.07
2018-06-22T21:38:03.867Z,18.20
2018-06-22T21:40:32.420Z,18.77
2018-06-22T21:43:00.936Z,23.30
2018-06-22T21:45:29.405Z,26.20
2018-06-22T21:47:57.967Z,20.77
2018-06-22T21:50:26.444Z,23.90
2018-06-22T21:52:54.982Z,15.03
2018-06-22T21:55:23.432Z,16.17
2018-06-22T21:57:51.646Z,20.00
2018-06-22T22:00:31.891Z,24.97
2018-06-22T22:03:01.208Z,22.00
2018-06-22T22:05:30.422Z,25.80
2018-06-22T22:07:59.211Z,25.10
2018-06-22T22:10:33.112Z,29.23
2018-06-22T22:13:01.602Z,23.03
2018-06-22T22:15:30.404Z,20.77
2018-06-22T22:17:58.848Z,26.70
2018-06-22T22:20:27.325Z,18.47
2018-06-22T22:22:55.521Z,22.63
2018-06-22T22:25:24.223Z,24.80
2018-06-22T22:27:52.800Z,20.07
2018-06-22T22:30:21.431Z,24.73
2018-06-22T22:32:50.039Z,19.93
2018-06-22T22:35:18.658Z,18.17
2018-06-22T22:37:47.137Z,27.80
2018-06-22T22:40:15.624Z,21.60
2018-06-22T22:42:44.148Z,27.73
2018-06-22T22:45:12.685Z,21.07
2018-06-22T22:47:41.131Z,29.83
2018-06-22T22:50:09.692Z,29.90
2018-06-22T22:52:38.176Z,19.07
2018-06-22T22:55:06.683Z,24.97
2018-06-22T22:57:35.155Z,22.37
2018-06-22T23:00:03.660Z,22.27
2018-06-22T23:02:32.124Z,15.37
2018-06-22T23:05:00.699Z,20.60
2018-06-22T23:07:29.230Z,24.37
2018-06-22T23:09:57.790Z,19.53
2018-06-22T23:12:26.308Z,18.47
2018-06-22T23:14:54.816Z,23.10
2018-06-22T23:17:23.044Z,21.87
2018-06-22T23:19:51.556Z,21.20
2018-06-22T23:22:30.158Z,24.33
2018-06-22T23:24:58.758Z,26.37
2018-06-22T23:27:27.334Z,23.57
2018-06-22T23:29:55.867Z,22.03
2018-06-22T23:32:24.495Z,18.53
2018-06-22T23:34:52.967Z,31.50
2018-06-22T23:37:21.391Z,24.17
2018-06-22T23:39:49.891Z,23.60
2018-06-22T23:42:18.388Z,29.93
2018-06-22T23:44:46.881Z,26.97
2018-06-22T23:47:15.393Z,20.30
2018-06-22T23:49:43.962Z,28.07
2018-06-22T23:52:12.166Z,23.80
2018-06-22T23:54:40.711Z,26.50
2018-06-22T23:57:09.224Z,20.63
2018-06-22T23:59:37.716Z,21.97
